sensor_id;sensor_type;location;lat;lon;timestamp;P1;durP1;ratioP1;P2;durP2;ratioP2
75165;SDS011;63747;48.042;10.088;2022-09-30T00:02:55;21.43;;;4.97;;
75165;SDS011;63747;48.042;10.088;2022-09-30T00:06:00;8.57;;;5.30;;
75165;SDS011;63747;48.042;10.088;2022-09-30T00:09:03;8.10;;;5.50;;
75165;SDS011;63747;48.042;10.088;2022-09-30T00:12:04;8.75;;;5.10;;
75165;SDS011;63747;48.042;10.088;2022-09-30T00:15:05;39.80;;;6.37;;
75165;SDS011;63747;48.042;10.088;2022-09-30T00:18:07;43.45;;;7.50;;
75165;SDS011;63747;48.042;10.088;2022-09-30T00:21:08;32.50;;;6.53;;
75165;SDS011;63747;48.042;10.088;2022-09-30T00:24:10;36.85;;;6.32;;
75165;SDS011;63747;48.042;10.088;2022-09-30T00:27:11;17.77;;;3.90;;
75165;SDS011;63747;48.042;10.088;2022-09-30T00:30:17;26.50;;;6.15;;
75165;SDS011;63747;48.042;10.088;2022-09-30T00:33:18;42.72;;;7.47;;
75165;SDS011;63747;48.042;10.088;2022-09-30T00:36:19;36.33;;;7.77;;
75165;SDS011;63747;48.042;10.088;2022-09-30T00:39:24;18.43;;;6.00;;
75165;SDS011;63747;48.042;10.088;2022-09-30T00:42:26;22.25;;;6.90;;
75165;SDS011;63747;48.042;10.088;2022-09-30T00:45:33;19.55;;;4.05;;
75165;SDS011;63747;48.042;10.088;2022-09-30T00:48:34;20.42;;;4.40;;
75165;SDS011;63747;48.042;10.088;2022-09-30T00:51:42;47.88;;;5.10;;
75165;SDS011;63747;48.042;10.088;2022-09-30T00:54:47;53.88;;;4.53;;
75165;SDS011;63747;48.042;10.088;2022-09-30T00:57:49;36.08;;;4.50;;
75165;SDS011;63747;48.042;10.088;2022-09-30T01:00:50;126.35;;;7.93;;
75165;SDS011;63747;48.042;10.088;2022-09-30T01:03:55;79.60;;;5.28;;
75165;SDS011;63747;48.042;10.088;2022-09-30T01:07:03;97.13;;;6.85;;
75165;SDS011;63747;48.042;10.088;2022-09-30T01:10:08;196.30;;;8.45;;
75165;SDS011;63747;48.042;10.088;2022-09-30T01:13:08;133.15;;;6.05;;
75165;SDS011;63747;48.042;10.088;2022-09-30T01:26:08;110.28;;;7.75;;
75165;SDS011;63747;48.042;10.088;2022-09-30T01:50:11;268.33;;;12.43;;
75165;SDS011;63747;48.042;10.088;2022-09-30T01:57:04;509.73;;;18.55;;
75165;SDS011;63747;48.042;10.088;2022-09-30T02:00:10;211.93;;;9.57;;
75165;SDS011;63747;48.042;10.088;2022-09-30T02:03:14;160.38;;;8.30;;
75165;SDS011;63747;48.042;10.088;2022-09-30T02:06:20;287.42;;;14.15;;
75165;SDS011;63747;48.042;10.088;2022-09-30T02:13:18;233.90;;;9.95;;
75165;SDS011;63747;48.042;10.088;2022-09-30T02:16:45;159.77;;;7.80;;
75165;SDS011;63747;48.042;10.088;2022-09-30T02:31:12;370.33;;;16.63;;
75165;SDS011;63747;48.042;10.088;2022-09-30T02:34:24;251.38;;;10.60;;
75165;SDS011;63747;48.042;10.088;2022-09-30T02:37:33;362.50;;;12.20;;
75165;SDS011;63747;48.042;10.088;2022-09-30T02:40:42;178.50;;;9.90;;
75165;SDS011;63747;48.042;10.088;2022-09-30T02:43:47;415.00;;;19.40;;
75165;SDS011;63747;48.042;10.088;2022-09-30T02:49:55;286.05;;;16.17;;
75165;SDS011;63747;48.042;10.088;2022-09-30T02:57:16;288.45;;;13.48;;
75165;SDS011;63747;48.042;10.088;2022-09-30T03:04:24;232.27;;;16.98;;
75165;SDS011;63747;48.042;10.088;2022-09-30T03:11:06;195.65;;;8.10;;
75165;SDS011;63747;48.042;10.088;2022-09-30T03:18:06;218.57;;;11.98;;
75165;SDS011;63747;48.042;10.088;2022-09-30T03:25:10;111.25;;;7.25;;
75165;SDS011;63747;48.042;10.088;2022-09-30T03:41:11;131.43;;;11.57;;
75165;SDS011;63747;48.042;10.088;2022-09-30T03:44:24;133.52;;;10.07;;
75165;SDS011;63747;48.042;10.088;2022-09-30T03:47:32;70.55;;;7.28;;
75165;SDS011;63747;48.042;10.088;2022-09-30T03:50:37;118.25;;;8.85;;
75165;SDS011;63747;48.042;10.088;2022-09-30T03:53:41;62.40;;;6.60;;
75165;SDS011;63747;48.042;10.088;2022-09-30T03:56:43;80.43;;;6.70;;
75165;SDS011;63747;48.042;10.088;2022-09-30T03:59:43;115.90;;;10.13;;
75165;SDS011;63747;48.042;10.088;2022-09-30T04:06:55;132.50;;;10.35;;
75165;SDS011;63747;48.042;10.088;2022-09-30T04:13:53;39.88;;;6.40;;
75165;SDS011;63747;48.042;10.088;2022-09-30T04:16:54;122.30;;;8.07;;
75165;SDS011;63747;48.042;10.088;2022-09-30T04:19:54;176.47;;;11.73;;
75165;SDS011;63747;48.042;10.088;2022-09-30T04:23:01;87.60;;;8.40;;
75165;SDS011;63747;48.042;10.088;2022-09-30T04:26:02;72.80;;;8.32;;
75165;SDS011;63747;48.042;10.088;2022-09-30T04:29:04;227.50;;;13.25;;
75165;SDS011;63747;48.042;10.088;2022-09-30T04:32:06;203.23;;;17.37;;
75165;SDS011;63747;48.042;10.088;2022-09-30T04:35:07;163.35;;;10.65;;
75165;SDS011;63747;48.042;10.088;2022-09-30T04:41:41;97.47;;;8.95;;
75165;SDS011;63747;48.042;10.088;2022-09-30T04:44:42;132.37;;;12.43;;
75165;SDS011;63747;48.042;10.088;2022-09-30T04:47:43;140.40;;;10.20;;
75165;SDS011;63747;48.042;10.088;2022-09-30T04:54:41;233.75;;;16.63;;
75165;SDS011;63747;48.042;10.088;2022-09-30T04:57:44;230.20;;;14.33;;
75165;SDS011;63747;48.042;10.088;2022-09-30T05:00:58;216.82;;;15.77;;
75165;SDS011;63747;48.042;10.088;2022-09-30T05:04:06;190.63;;;13.33;;
75165;SDS011;63747;48.042;10.088;2022-09-30T05:07:07;167.10;;;10.50;;
75165;SDS011;63747;48.042;10.088;2022-09-30T05:14:05;359.33;;;15.82;;
75165;SDS011;63747;48.042;10.088;2022-09-30T05:17:20;332.50;;;18.63;;
75165;SDS011;63747;48.042;10.088;2022-09-30T05:20:21;283.23;;;14.38;;
75165;SDS011;63747;48.042;10.088;2022-09-30T05:23:22;380.53;;;20.47;;
75165;SDS011;63747;48.042;10.088;2022-09-30T05:30:09;187.23;;;12.07;;
75165;SDS011;63747;48.042;10.088;2022-09-30T05:33:10;101.55;;;9.02;;
75165;SDS011;63747;48.042;10.088;2022-09-30T05:36:13;188.77;;;10.65;;
75165;SDS011;63747;48.042;10.088;2022-09-30T05:39:15;190.57;;;10.45;;
75165;SDS011;63747;48.042;10.088;2022-09-30T05:42:15;251.27;;;16.50;;
75165;SDS011;63747;48.042;10.088;2022-09-30T05:48:40;191.57;;;14.65;;
75165;SDS011;63747;48.042;10.088;2022-09-30T05:51:40;197.13;;;12.57;;
75165;SDS011;63747;48.042;10.088;2022-09-30T05:58:47;101.68;;;9.05;;
75165;SDS011;63747;48.042;10.088;2022-09-30T06:05:42;138.38;;;10.77;;
75165;SDS011;63747;48.042;10.088;2022-09-30T06:08:50;51.83;;;9.20;;
75165;SDS011;63747;48.042;10.088;2022-09-30T06:12:03;187.20;;;12.35;;
75165;SDS011;63747;48.042;10.088;2022-09-30T06:18:41;106.72;;;10.27;;
75165;SDS011;63747;48.042;10.088;2022-09-30T06:22:00;98.67;;;10.57;;
75165;SDS011;63747;48.042;10.088;2022-09-30T06:25:04;197.43;;;13.45;;
75165;SDS011;63747;48.042;10.088;2022-09-30T06:28:05;141.90;;;12.00;;
75165;SDS011;63747;48.042;10.088;2022-09-30T06:31:06;191.37;;;12.87;;
75165;SDS011;63747;48.042;10.088;2022-09-30T06:34:09;171.00;;;15.70;;
75165;SDS011;63747;48.042;10.088;2022-09-30T06:37:10;59.75;;;9.13;;
75165;SDS011;63747;48.042;10.088;2022-09-30T06:40:12;91.28;;;9.70;;
75165;SDS011;63747;48.042;10.088;2022-09-30T06:43:13;150.65;;;11.27;;
75165;SDS011;63747;48.042;10.088;2022-09-30T06:46:14;48.43;;;7.80;;
75165;SDS011;63747;48.042;10.088;2022-09-30T06:49:15;35.03;;;9.13;;
75165;SDS011;63747;48.042;10.088;2022-09-30T06:52:16;42.60;;;8.47;;
75165;SDS011;63747;48.042;10.088;2022-09-30T06:55:17;69.73;;;9.63;;
75165;SDS011;63747;48.042;10.088;2022-09-30T06:58:18;51.28;;;8.93;;
75165;SDS011;63747;48.042;10.088;2022-09-30T07:01:20;116.55;;;13.57;;
75165;SDS011;63747;48.042;10.088;2022-09-30T07:04:20;98.50;;;11.63;;
75165;SDS011;63747;48.042;10.088;2022-09-30T07:10:23;21.42;;;8.52;;
75165;SDS011;63747;48.042;10.088;2022-09-30T07:13:23;62.30;;;9.30;;
75165;SDS011;63747;48.042;10.088;2022-09-30T07:16:25;82.68;;;10.93;;
75165;SDS011;63747;48.042;10.088;2022-09-30T07:19:26;32.40;;;8.13;;
75165;SDS011;63747;48.042;10.088;2022-09-30T07:22:27;57.42;;;10.13;;
75165;SDS011;63747;48.042;10.088;2022-09-30T07:25:31;64.90;;;12.75;;
75165;SDS011;63747;48.042;10.088;2022-09-30T07:28:32;24.47;;;9.27;;
75165;SDS011;63747;48.042;10.088;2022-09-30T07:31:34;77.82;;;12.55;;
75165;SDS011;63747;48.042;10.088;2022-09-30T07:34:35;68.87;;;11.63;;
75165;SDS011;63747;48.042;10.088;2022-09-30T07:37:37;61.22;;;11.68;;
75165;SDS011;63747;48.042;10.088;2022-09-30T07:40:37;89.57;;;10.43;;
75165;SDS011;63747;48.042;10.088;2022-09-30T07:43:39;61.83;;;9.23;;
75165;SDS011;63747;48.042;10.088;2022-09-30T07:46:43;30.92;;;8.05;;
75165;SDS011;63747;48.042;10.088;2022-09-30T07:49:44;27.63;;;7.78;;
75165;SDS011;63747;48.042;10.088;2022-09-30T07:52:45;9.45;;;7.68;;
75165;SDS011;63747;48.042;10.088;2022-09-30T07:55:46;17.87;;;7.33;;
75165;SDS011;63747;48.042;10.088;2022-09-30T07:58:46;23.67;;;8.37;;
75165;SDS011;63747;48.042;10.088;2022-09-30T08:01:47;9.82;;;6.40;;
75165;SDS011;63747;48.042;10.088;2022-09-30T08:04:49;17.90;;;7.82;;
75165;SDS011;63747;48.042;10.088;2022-09-30T08:07:50;8.00;;;6.83;;
75165;SDS011;63747;48.042;10.088;2022-09-30T08:14:39;18.25;;;7.60;;
75165;SDS011;63747;48.042;10.088;2022-09-30T08:17:45;7.57;;;6.88;;
75165;SDS011;63747;48.042;10.088;2022-09-30T08:20:46;9.15;;;7.18;;
75165;SDS011;63747;48.042;10.088;2022-09-30T08:23:47;7.53;;;6.87;;
75165;SDS011;63747;48.042;10.088;2022-09-30T08:26:48;9.55;;;8.15;;
75165;SDS011;63747;48.042;10.088;2022-09-30T08:32:51;12.43;;;7.57;;
75165;SDS011;63747;48.042;10.088;2022-09-30T08:35:51;13.33;;;7.67;;
75165;SDS011;63747;48.042;10.088;2022-09-30T08:38:52;11.90;;;7.87;;
75165;SDS011;63747;48.042;10.088;2022-09-30T08:42:02;11.20;;;7.70;;
75165;SDS011;63747;48.042;10.088;2022-09-30T08:45:16;8.15;;;7.40;;
75165;SDS011;63747;48.042;10.088;2022-09-30T08:52:07;12.68;;;8.60;;
75165;SDS011;63747;48.042;10.088;2022-09-30T08:55:19;9.25;;;7.65;;
75165;SDS011;63747;48.042;10.088;2022-09-30T08:58:27;17.75;;;6.80;;
75165;SDS011;63747;48.042;10.088;2022-09-30T09:01:46;15.75;;;8.43;;
75165;SDS011;63747;48.042;10.088;2022-09-30T09:04:53;12.82;;;8.02;;
75165;SDS011;63747;48.042;10.088;2022-09-30T09:08:11;15.90;;;8.43;;
75165;SDS011;63747;48.042;10.088;2022-09-30T09:11:47;19.00;;;9.30;;
75165;SDS011;63747;48.042;10.088;2022-09-30T09:19:09;16.05;;;9.02;;
75165;SDS011;63747;48.042;10.088;2022-09-30T09:22:14;11.57;;;8.60;;
75165;SDS011;63747;48.042;10.088;2022-09-30T09:25:18;10.57;;;7.68;;
75165;SDS011;63747;48.042;10.088;2022-09-30T09:28:36;8.27;;;7.40;;
75165;SDS011;63747;48.042;10.088;2022-09-30T09:31:44;9.70;;;7.93;;
75165;SDS011;63747;48.042;10.088;2022-09-30T09:34:49;12.35;;;9.13;;
75165;SDS011;63747;48.042;10.088;2022-09-30T09:38:18;10.50;;;9.27;;
75165;SDS011;63747;48.042;10.088;2022-09-30T09:48:07;10.15;;;8.90;;
75165;SDS011;63747;48.042;10.088;2022-09-30T09:51:26;9.45;;;8.52;;
75165;SDS011;63747;48.042;10.088;2022-09-30T09:54:40;9.05;;;8.15;;
75165;SDS011;63747;48.042;10.088;2022-09-30T09:57:44;9.68;;;8.55;;
75165;SDS011;63747;48.042;10.088;2022-09-30T10:00:45;10.13;;;9.07;;
75165;SDS011;63747;48.042;10.088;2022-09-30T10:03:46;10.32;;;9.23;;
75165;SDS011;63747;48.042;10.088;2022-09-30T10:07:13;9.02;;;8.23;;
75165;SDS011;63747;48.042;10.088;2022-09-30T10:10:20;11.45;;;8.45;;
75165;SDS011;63747;48.042;10.088;2022-09-30T10:13:23;10.45;;;9.45;;
75165;SDS011;63747;48.042;10.088;2022-09-30T10:16:32;10.13;;;9.20;;
75165;SDS011;63747;48.042;10.088;2022-09-30T10:19:35;10.82;;;9.77;;
75165;SDS011;63747;48.042;10.088;2022-09-30T10:22:36;9.13;;;8.27;;
75165;SDS011;63747;48.042;10.088;2022-09-30T10:25:36;9.32;;;8.43;;
75165;SDS011;63747;48.042;10.088;2022-09-30T10:28:45;8.70;;;7.90;;
75165;SDS011;63747;48.042;10.088;2022-09-30T10:31:53;9.02;;;8.13;;
75165;SDS011;63747;48.042;10.088;2022-09-30T10:35:03;9.60;;;8.73;;
75165;SDS011;63747;48.042;10.088;2022-09-30T10:38:08;9.13;;;8.23;;
75165;SDS011;63747;48.042;10.088;2022-09-30T10:41:12;10.55;;;8.95;;
75165;SDS011;63747;48.042;10.088;2022-09-30T10:44:14;9.83;;;8.83;;
75165;SDS011;63747;48.042;10.088;2022-09-30T10:47:21;10.55;;;9.55;;
75165;SDS011;63747;48.042;10.088;2022-09-30T10:50:27;10.25;;;9.25;;
75165;SDS011;63747;48.042;10.088;2022-09-30T10:53:28;10.27;;;9.23;;
75165;SDS011;63747;48.042;10.088;2022-09-30T10:56:34;10.73;;;9.73;;
75165;SDS011;63747;48.042;10.088;2022-09-30T10:59:37;10.57;;;9.35;;
75165;SDS011;63747;48.042;10.088;2022-09-30T11:06:04;11.95;;;10.43;;
75165;SDS011;63747;48.042;10.088;2022-09-30T11:09:13;10.77;;;9.77;;
75165;SDS011;63747;48.042;10.088;2022-09-30T11:13:03;11.40;;;10.30;;
75165;SDS011;63747;48.042;10.088;2022-09-30T11:16:02;11.63;;;10.48;;
75165;SDS011;63747;48.042;10.088;2022-09-30T11:25:56;11.90;;;10.73;;
75165;SDS011;63747;48.042;10.088;2022-09-30T11:32:45;13.35;;;11.70;;
75165;SDS011;63747;48.042;10.088;2022-09-30T11:39:48;11.65;;;10.55;;
75165;SDS011;63747;48.042;10.088;2022-09-30T11:42:54;12.73;;;11.52;;
75165;SDS011;63747;48.042;10.088;2022-09-30T12:02:39;12.00;;;10.90;;
75165;SDS011;63747;48.042;10.088;2022-09-30T12:05:46;12.68;;;11.38;;
75165;SDS011;63747;48.042;10.088;2022-09-30T12:08:52;13.02;;;11.52;;
75165;SDS011;63747;48.042;10.088;2022-09-30T12:12:03;12.43;;;11.13;;
75165;SDS011;63747;48.042;10.088;2022-09-30T12:15:13;12.48;;;11.27;;
75165;SDS011;63747;48.042;10.088;2022-09-30T12:18:20;12.52;;;11.32;;
75165;SDS011;63747;48.042;10.088;2022-09-30T12:21:35;13.80;;;12.38;;
75165;SDS011;63747;48.042;10.088;2022-09-30T12:24:42;13.38;;;11.48;;
75165;SDS011;63747;48.042;10.088;2022-09-30T12:27:49;13.20;;;11.93;;
75165;SDS011;63747;48.042;10.088;2022-09-30T12:41:54;12.43;;;11.15;;
75165;SDS011;63747;48.042;10.088;2022-09-30T12:45:23;11.85;;;10.75;;
75165;SDS011;63747;48.042;10.088;2022-09-30T12:48:35;11.93;;;10.82;;
75165;SDS011;63747;48.042;10.088;2022-09-30T12:51:41;11.02;;;9.93;;
75165;SDS011;63747;48.042;10.088;2022-09-30T12:54:46;11.88;;;10.73;;
75165;SDS011;63747;48.042;10.088;2022-09-30T12:57:59;12.80;;;11.60;;
75165;SDS011;63747;48.042;10.088;2022-09-30T13:04:16;10.27;;;9.38;;
75165;SDS011;63747;48.042;10.088;2022-09-30T13:14:20;11.40;;;10.38;;
75165;SDS011;63747;48.042;10.088;2022-09-30T13:17:29;11.02;;;10.02;;
75165;SDS011;63747;48.042;10.088;2022-09-30T13:24:05;11.55;;;10.45;;
75165;SDS011;63747;48.042;10.088;2022-09-30T13:27:11;10.95;;;9.95;;
75165;SDS011;63747;48.042;10.088;2022-09-30T13:33:31;11.40;;;10.40;;
75165;SDS011;63747;48.042;10.088;2022-09-30T13:39:53;9.40;;;8.60;;
75165;SDS011;63747;48.042;10.088;2022-09-30T13:42:59;11.13;;;10.02;;
75165;SDS011;63747;48.042;10.088;2022-09-30T13:46:05;10.55;;;9.60;;
75165;SDS011;63747;48.042;10.088;2022-09-30T13:49:19;10.60;;;9.70;;
75165;SDS011;63747;48.042;10.088;2022-09-30T13:52:25;10.55;;;9.55;;
75165;SDS011;63747;48.042;10.088;2022-09-30T13:55:37;10.15;;;9.25;;
75165;SDS011;63747;48.042;10.088;2022-09-30T14:08:53;9.00;;;8.20;;
75165;SDS011;63747;48.042;10.088;2022-09-30T14:22:04;10.18;;;9.18;;
75165;SDS011;63747;48.042;10.088;2022-09-30T14:25:14;10.10;;;9.10;;
75165;SDS011;63747;48.042;10.088;2022-09-30T14:28:20;10.30;;;9.30;;
75165;SDS011;63747;48.042;10.088;2022-09-30T14:31:41;10.32;;;9.43;;
75165;SDS011;63747;48.042;10.088;2022-09-30T14:34:45;10.23;;;9.35;;
75165;SDS011;63747;48.042;10.088;2022-09-30T14:37:48;9.68;;;8.82;;
75165;SDS011;63747;48.042;10.088;2022-09-30T14:40:53;10.38;;;9.48;;
75165;SDS011;63747;48.042;10.088;2022-09-30T14:44:10;10.75;;;9.65;;
75165;SDS011;63747;48.042;10.088;2022-09-30T14:47:17;12.18;;;8.95;;
75165;SDS011;63747;48.042;10.088;2022-09-30T14:50:21;10.02;;;9.13;;
75165;SDS011;63747;48.042;10.088;2022-09-30T14:53:30;10.63;;;9.52;;
75165;SDS011;63747;48.042;10.088;2022-09-30T14:56:35;10.15;;;9.15;;
75165;SDS011;63747;48.042;10.088;2022-09-30T14:59:35;9.80;;;8.95;;
75165;SDS011;63747;48.042;10.088;2022-09-30T15:02:41;11.27;;;10.27;;
75165;SDS011;63747;48.042;10.088;2022-09-30T15:05:45;10.30;;;9.27;;
75165;SDS011;63747;48.042;10.088;2022-09-30T15:08:46;10.35;;;9.43;;
75165;SDS011;63747;48.042;10.088;2022-09-30T15:11:48;9.43;;;8.60;;
75165;SDS011;63747;48.042;10.088;2022-09-30T15:14:53;9.52;;;8.57;;
75165;SDS011;63747;48.042;10.088;2022-09-30T15:17:58;10.85;;;9.68;;
75165;SDS011;63747;48.042;10.088;2022-09-30T15:21:14;10.95;;;9.48;;
75165;SDS011;63747;48.042;10.088;2022-09-30T15:24:16;9.93;;;9.02;;
75165;SDS011;63747;48.042;10.088;2022-09-30T15:27:19;9.63;;;8.73;;
75165;SDS011;63747;48.042;10.088;2022-09-30T15:30:24;10.07;;;9.18;;
75165;SDS011;63747;48.042;10.088;2022-09-30T15:33:28;11.13;;;9.88;;
75165;SDS011;63747;48.042;10.088;2022-09-30T15:36:31;13.15;;;9.55;;
75165;SDS011;63747;48.042;10.088;2022-09-30T15:39:36;9.63;;;8.63;;
75165;SDS011;63747;48.042;10.088;2022-09-30T15:43:01;9.48;;;8.57;;
75165;SDS011;63747;48.042;10.088;2022-09-30T15:46:17;8.93;;;8.13;;
75165;SDS011;63747;48.042;10.088;2022-09-30T15:49:33;11.15;;;9.23;;
75165;SDS011;63747;48.042;10.088;2022-09-30T15:52:45;10.23;;;9.32;;
75165;SDS011;63747;48.042;10.088;2022-09-30T15:55:50;9.20;;;8.38;;
75165;SDS011;63747;48.042;10.088;2022-09-30T15:58:58;9.77;;;8.88;;
75165;SDS011;63747;48.042;10.088;2022-09-30T16:02:03;10.20;;;9.25;;
75165;SDS011;63747;48.042;10.088;2022-09-30T16:08:23;10.48;;;9.48;;
75165;SDS011;63747;48.042;10.088;2022-09-30T16:11:37;9.77;;;8.88;;
75165;SDS011;63747;48.042;10.088;2022-09-30T16:14:51;9.27;;;8.40;;
75165;SDS011;63747;48.042;10.088;2022-09-30T16:17:58;10.10;;;9.05;;
75165;SDS011;63747;48.042;10.088;2022-09-30T16:21:03;10.13;;;9.23;;
75165;SDS011;63747;48.042;10.088;2022-09-30T16:27:43;10.75;;;9.85;;
75165;SDS011;63747;48.042;10.088;2022-09-30T16:30:54;10.43;;;9.52;;
75165;SDS011;63747;48.042;10.088;2022-09-30T16:34:02;9.88;;;8.98;;
75165;SDS011;63747;48.042;10.088;2022-09-30T16:37:08;10.68;;;9.60;;
75165;SDS011;63747;48.042;10.088;2022-09-30T16:40:17;10.88;;;9.90;;
75165;SDS011;63747;48.042;10.088;2022-09-30T16:43:24;10.98;;;9.85;;
75165;SDS011;63747;48.042;10.088;2022-09-30T16:46:26;10.82;;;9.75;;
75165;SDS011;63747;48.042;10.088;2022-09-30T16:49:33;11.38;;;10.30;;
75165;SDS011;63747;48.042;10.088;2022-09-30T16:52:41;11.63;;;10.43;;
75165;SDS011;63747;48.042;10.088;2022-09-30T16:55:54;11.13;;;10.05;;
75165;SDS011;63747;48.042;10.088;2022-09-30T16:58:55;12.45;;;9.88;;
75165;SDS011;63747;48.042;10.088;2022-09-30T17:01:57;10.52;;;9.60;;
75165;SDS011;63747;48.042;10.088;2022-09-30T17:04:59;11.02;;;10.02;;
75165;SDS011;63747;48.042;10.088;2022-09-30T17:08:01;11.90;;;10.80;;
75165;SDS011;63747;48.042;10.088;2022-09-30T17:11:02;36.63;;;30.13;;
75165;SDS011;63747;48.042;10.088;2022-09-30T17:14:07;12.55;;;11.32;;
75165;SDS011;63747;48.042;10.088;2022-09-30T17:17:12;12.32;;;11.02;;
75165;SDS011;63747;48.042;10.088;2022-09-30T17:20:35;13.00;;;11.65;;
75165;SDS011;63747;48.042;10.088;2022-09-30T17:23:43;14.80;;;12.68;;
75165;SDS011;63747;48.042;10.088;2022-09-30T17:26:48;21.15;;;19.15;;
75165;SDS011;63747;48.042;10.088;2022-09-30T17:36:23;14.32;;;12.88;;
75165;SDS011;63747;48.042;10.088;2022-09-30T17:42:28;17.50;;;15.70;;
75165;SDS011;63747;48.042;10.088;2022-09-30T17:45:50;31.52;;;27.67;;
75165;SDS011;63747;48.042;10.088;2022-09-30T17:48:54;33.70;;;29.85;;
75165;SDS011;63747;48.042;10.088;2022-09-30T17:52:00;30.75;;;27.40;;
75165;SDS011;63747;48.042;10.088;2022-09-30T17:55:07;27.15;;;18.65;;
75165;SDS011;63747;48.042;10.088;2022-09-30T17:58:10;19.08;;;16.65;;
75165;SDS011;63747;48.042;10.088;2022-09-30T18:01:11;41.05;;;37.03;;
75165;SDS011;63747;48.042;10.088;2022-09-30T18:04:13;22.45;;;19.75;;
75165;SDS011;63747;48.042;10.088;2022-09-30T18:07:18;17.98;;;15.98;;
75165;SDS011;63747;48.042;10.088;2022-09-30T18:13:23;19.08;;;14.50;;
75165;SDS011;63747;48.042;10.088;2022-09-30T18:16:38;16.83;;;13.80;;
75165;SDS011;63747;48.042;10.088;2022-09-30T18:19:40;18.13;;;16.23;;
75165;SDS011;63747;48.042;10.088;2022-09-30T18:22:43;19.80;;;17.73;;
75165;SDS011;63747;48.042;10.088;2022-09-30T18:25:45;49.75;;;38.00;;
75165;SDS011;63747;48.042;10.088;2022-09-30T18:31:49;28.02;;;22.75;;
75165;SDS011;63747;48.042;10.088;2022-09-30T18:34:52;22.67;;;20.37;;
75165;SDS011;63747;48.042;10.088;2022-09-30T18:37:55;20.52;;;18.10;;
75165;SDS011;63747;48.042;10.088;2022-09-30T18:40:56;20.67;;;18.47;;
75165;SDS011;63747;48.042;10.088;2022-09-30T18:43:57;21.10;;;18.25;;
75165;SDS011;63747;48.042;10.088;2022-09-30T18:47:01;52.97;;;43.17;;
75165;SDS011;63747;48.042;10.088;2022-09-30T18:50:02;37.00;;;30.30;;
75165;SDS011;63747;48.042;10.088;2022-09-30T18:53:05;36.92;;;27.80;;
75165;SDS011;63747;48.042;10.088;2022-09-30T18:56:07;39.45;;;30.67;;
75165;SDS011;63747;48.042;10.088;2022-09-30T18:59:09;62.40;;;43.37;;
75165;SDS011;63747;48.042;10.088;2022-09-30T19:02:14;31.42;;;24.80;;
75165;SDS011;63747;48.042;10.088;2022-09-30T19:05:17;25.77;;;19.45;;
75165;SDS011;63747;48.042;10.088;2022-09-30T19:08:18;20.58;;;18.10;;
75165;SDS011;63747;48.042;10.088;2022-09-30T19:11:19;18.00;;;16.13;;
75165;SDS011;63747;48.042;10.088;2022-09-30T19:14:24;24.27;;;19.85;;
75165;SDS011;63747;48.042;10.088;2022-09-30T19:17:26;27.67;;;22.85;;
75165;SDS011;63747;48.042;10.088;2022-09-30T19:20:35;21.63;;;16.77;;
75165;SDS011;63747;48.042;10.088;2022-09-30T19:23:37;17.58;;;12.63;;
75165;SDS011;63747;48.042;10.088;2022-09-30T19:26:40;11.50;;;10.38;;
75165;SDS011;63747;48.042;10.088;2022-09-30T19:29:42;13.13;;;11.77;;
75165;SDS011;63747;48.042;10.088;2022-09-30T19:32:44;15.80;;;14.30;;
75165;SDS011;63747;48.042;10.088;2022-09-30T19:35:46;14.45;;;12.95;;
75165;SDS011;63747;48.042;10.088;2022-09-30T19:38:50;17.58;;;15.75;;
75165;SDS011;63747;48.042;10.088;2022-09-30T19:41:52;17.90;;;14.05;;
75165;SDS011;63747;48.042;10.088;2022-09-30T19:44:54;23.75;;;19.65;;
75165;SDS011;63747;48.042;10.088;2022-09-30T19:47:56;218.82;;;89.93;;
75165;SDS011;63747;48.042;10.088;2022-09-30T19:50:59;81.55;;;41.83;;
75165;SDS011;63747;48.042;10.088;2022-09-30T19:54:01;41.17;;;27.30;;
75165;SDS011;63747;48.042;10.088;2022-09-30T19:57:02;27.60;;;21.17;;
75165;SDS011;63747;48.042;10.088;2022-09-30T20:03:19;19.45;;;16.90;;
75165;SDS011;63747;48.042;10.088;2022-09-30T20:06:21;20.45;;;18.00;;
75165;SDS011;63747;48.042;10.088;2022-09-30T20:09:32;22.10;;;18.58;;
75165;SDS011;63747;48.042;10.088;2022-09-30T20:12:33;20.25;;;17.33;;
75165;SDS011;63747;48.042;10.088;2022-09-30T20:15:47;19.03;;;17.07;;
75165;SDS011;63747;48.042;10.088;2022-09-30T20:18:51;17.80;;;15.93;;
75165;SDS011;63747;48.042;10.088;2022-09-30T20:21:52;17.83;;;16.10;;
75165;SDS011;63747;48.042;10.088;2022-09-30T20:24:54;16.43;;;14.83;;
75165;SDS011;63747;48.042;10.088;2022-09-30T20:27:55;17.60;;;15.90;;
75165;SDS011;63747;48.042;10.088;2022-09-30T20:30:58;22.27;;;17.47;;
75165;SDS011;63747;48.042;10.088;2022-09-30T20:38:02;17.05;;;15.10;;
75165;SDS011;63747;48.042;10.088;2022-09-30T20:41:04;16.55;;;14.73;;
75165;SDS011;63747;48.042;10.088;2022-09-30T20:44:09;16.63;;;13.50;;
75165;SDS011;63747;48.042;10.088;2022-09-30T20:51:10;13.13;;;11.73;;
75165;SDS011;63747;48.042;10.088;2022-09-30T20:54:12;12.40;;;11.20;;
75165;SDS011;63747;48.042;10.088;2022-09-30T20:57:13;13.57;;;12.17;;
75165;SDS011;63747;48.042;10.088;2022-09-30T21:04:10;13.73;;;12.02;;
75165;SDS011;63747;48.042;10.088;2022-09-30T21:07:11;15.50;;;13.97;;
75165;SDS011;63747;48.042;10.088;2022-09-30T21:10:12;18.33;;;12.50;;
75165;SDS011;63747;48.042;10.088;2022-09-30T21:13:13;14.97;;;13.50;;
75165;SDS011;63747;48.042;10.088;2022-09-30T21:19:28;13.95;;;12.45;;
75165;SDS011;63747;48.042;10.088;2022-09-30T21:22:29;16.27;;;13.50;;
75165;SDS011;63747;48.042;10.088;2022-09-30T21:29:26;12.93;;;11.63;;
75165;SDS011;63747;48.042;10.088;2022-09-30T21:32:29;16.90;;;14.15;;
75165;SDS011;63747;48.042;10.088;2022-09-30T21:35:30;23.13;;;18.03;;
75165;SDS011;63747;48.042;10.088;2022-09-30T21:38:31;20.77;;;17.17;;
75165;SDS011;63747;48.042;10.088;2022-09-30T21:41:33;17.30;;;14.98;;
75165;SDS011;63747;48.042;10.088;2022-09-30T21:44:37;24.15;;;19.60;;
75165;SDS011;63747;48.042;10.088;2022-09-30T21:55:04;20.30;;;15.95;;
75165;SDS011;63747;48.042;10.088;2022-09-30T21:58:06;19.38;;;17.35;;
75165;SDS011;63747;48.042;10.088;2022-09-30T22:05:03;18.58;;;15.93;;
75165;SDS011;63747;48.042;10.088;2022-09-30T22:12:02;16.83;;;14.85;;
75165;SDS011;63747;48.042;10.088;2022-09-30T22:15:07;21.48;;;17.90;;
75165;SDS011;63747;48.042;10.088;2022-09-30T22:29:00;17.38;;;15.55;;
75165;SDS011;63747;48.042;10.088;2022-09-30T22:32:04;16.98;;;15.18;;
75165;SDS011;63747;48.042;10.088;2022-09-30T22:35:04;16.53;;;14.77;;
75165;SDS011;63747;48.042;10.088;2022-09-30T22:38:25;16.65;;;14.95;;
75165;SDS011;63747;48.042;10.088;2022-09-30T22:41:25;16.70;;;15.00;;
75165;SDS011;63747;48.042;10.088;2022-09-30T22:44:27;17.90;;;16.00;;
75165;SDS011;63747;48.042;10.088;2022-09-30T22:47:31;18.63;;;15.80;;
75165;SDS011;63747;48.042;10.088;2022-09-30T22:50:33;17.33;;;15.63;;
75165;SDS011;63747;48.042;10.088;2022-09-30T22:53:35;19.23;;;16.42;;
75165;SDS011;63747;48.042;10.088;2022-09-30T22:56:37;18.33;;;16.52;;
75165;SDS011;63747;48.042;10.088;2022-09-30T22:59:38;17.23;;;15.43;;